Bookmark and Share
Track history (hours):
 

Forseti

Last reported at 2014-Apr-17 19:26 UTC. Time now 2014-Apr-18 03:05 UTC.
Position N 56°41' E 008°14'.

Length 85 m; draft 3.8 m.

Type: Cargo ship. MMSI: 304010297.

NotesDate/timePositionNaut miles runAvg speedWind from/ knotsBaromVisibWave heightAir tempDewpointWater temp
2014-Apr-17 19:26N 56°41' E 008°14'0 0.0
2014-Apr-17 18:32N 56°41' E 008°14'57 5.0
2014-Apr-17 07:15N 55°50' E 007°30'811.1
2014-Apr-17 06:33N 55°42' E 007°25'1111.2
2014-Apr-17 05:33N 55°32' E 007°21'1111.4
2014-Apr-17 04:33N 55°20' E 007°23'1211.7
2014-Apr-17 03:33N 55°08' E 007°25'1211.9
2014-Apr-17 02:33N 54°57' E 007°27'1212.0
2014-Apr-17 01:33N 54°45' E 007°29'1211.9
2014-Apr-17 00:33N 54°33' E 007°31'1211.5
2014-Apr-16 23:33N 54°21' E 007°33'1010.3
2014-Apr-16 22:34N 54°12' E 007°42'10 9.7
2014-Apr-16 21:34N 54°06' E 007°54'10 9.8
2014-Apr-16 20:33N 54°01' E 008°09'1111.4
2014-Apr-16 19:34N 53°59' E 008°28'1312.9
2014-Apr-16 18:33N 53°51' E 008°46'1514.6
2014-Apr-16 17:34N 53°53' E 009°10'1312.6
2014-Apr-16 16:34N 53°44' E 009°26'1110.7
2014-Apr-16 15:34N 53°36' E 009°36'9 9.4
2014-Apr-16 14:34N 53°33' E 009°51'4 3.8
2014-Apr-16 13:29N 53°32' E 009°58'0 0.0
2014-Apr-16 12:32N 53°32' E 009°58'0 0.0
2014-Apr-16 11:32N 53°32' E 009°58'0 0.0
2014-Apr-16 10:31N 53°32' E 009°58'0 0.0
2014-Apr-16 09:22N 53°32' E 009°58'0 0.0
2014-Apr-16 08:31N 53°32' E 009°58'0 0.0
2014-Apr-16 07:31N 53°32' E 009°58'0 0.0
2014-Apr-16 06:22N 53°32' E 009°58'0 0.0
2014-Apr-16 05:28N 53°32' E 009°58'0 0.0
2014-Apr-16 04:28N 53°32' E 009°58'0 0.0
2014-Apr-16 03:31N 53°32' E 009°58'0 0.0
2014-Apr-16 02:28N 53°32' E 009°58'0 0.0
2014-Apr-16 01:28N 53°32' E 009°58'0 0.0
2014-Apr-16 00:28N 53°32' E 009°58'0 0.0
2014-Apr-15 23:28N 53°32' E 009°58'0 0.0
2014-Apr-15 22:31N 53°32' E 009°58'0 0.0
2014-Apr-15 21:28N 53°32' E 009°58'0 0.0
2014-Apr-15 20:31N 53°32' E 009°58'0 0.0
2014-Apr-15 19:28N 53°32' E 009°58'0 0.0
2014-Apr-15 18:28N 53°32' E 009°58'0 0.0
2014-Apr-15 17:28N 53°32' E 009°58'0 0.0
2014-Apr-15 16:28N 53°32' E 009°58'0 0.0
2014-Apr-15 15:28N 53°32' E 009°58'0 0.0
2014-Apr-15 14:28N 53°32' E 009°58'0 0.0
2014-Apr-15 11:31N 53°32' E 009°58'0 0.0
2014-Apr-15 10:31N 53°32' E 009°58'0 0.0
2014-Apr-15 09:31N 53°32' E 009°58'0 0.0
2014-Apr-15 08:31N 53°32' E 009°58'0 0.0
2014-Apr-15 07:31N 53°32' E 009°58'0 0.0
2014-Apr-15 06:31N 53°32' E 009°58'0 0.0
2014-Apr-15 05:31N 53°32' E 009°58'0 0.0
2014-Apr-15 03:34N 53°32' E 009°58'7 7.1
2014-Apr-15 02:34N 53°34' E 009°46'9 8.6
2014-Apr-15 01:34N 53°37' E 009°33'0 0.0
2014-Apr-15 00:33N 53°37' E 009°33'0 0.0
2014-Apr-14 23:33N 53°37' E 009°33'0 0.0
2014-Apr-14 22:33N 53°37' E 009°33'0 0.0
2014-Apr-14 21:33N 53°37' E 009°33'0 0.1
2014-Apr-14 20:33N 53°37' E 009°33'0 0.0
2014-Apr-14 19:33N 53°37' E 009°33'0 0.0
2014-Apr-14 18:33N 53°37' E 009°33'0 0.1
2014-Apr-14 17:33N 53°37' E 009°33'0 0.3
2014-Apr-14 16:29N 53°37' E 009°33'0 0.1
2014-Apr-14 14:29N 53°37' E 009°34'0 0.0
2014-Apr-14 13:29N 53°37' E 009°34'0 0.0
2014-Apr-14 11:32N 53°37' E 009°34'0 0.0
2014-Apr-14 10:32N 53°37' E 009°34'0 0.0
2014-Apr-14 09:32N 53°37' E 009°34'0 0.1
2014-Apr-14 07:32N 53°37' E 009°33'0 0.0
2014-Apr-14 06:32N 53°37' E 009°33'0 0.0
2014-Apr-13 22:29N 53°37' E 009°34'0 0.0
2014-Apr-13 21:32N 53°37' E 009°34'0 0.1
2014-Apr-13 20:32N 53°37' E 009°33'0 0.0
2014-Apr-13 19:29N 53°37' E 009°33'0 0.0
2014-Apr-13 18:32N 53°37' E 009°33'0 0.0
2014-Apr-13 17:29N 53°37' E 009°33'0 0.0
2014-Apr-13 16:32N 53°37' E 009°33'0 0.0
2014-Apr-13 15:32N 53°37' E 009°33'0 0.1
2014-Apr-13 14:31N 53°37' E 009°34'0 0.0
2014-Apr-13 13:31N 53°37' E 009°34'0 0.0
2014-Apr-13 12:31N 53°37' E 009°34'0 0.0
2014-Apr-13 11:31N 53°37' E 009°34'0 0.0
2014-Apr-13 10:31N 53°37' E 009°34'0 0.0
2014-Apr-13 09:31N 53°37' E 009°34'0 0.1
2014-Apr-13 08:28N 53°37' E 009°33'0 0.0
2014-Apr-13 07:31N 53°37' E 009°33'0 0.0
2014-Apr-13 06:31N 53°37' E 009°33'0 0.0
2014-Apr-13 05:25N 53°37' E 009°33'0 0.0
2014-Apr-13 04:31N 53°37' E 009°33'0 0.0
2014-Apr-13 03:25N 53°37' E 009°33'0 0.1
2014-Apr-13 02:31N 53°37' E 009°34'0 0.1
2014-Apr-13 01:22N 53°37' E 009°34'0 0.0
2014-Apr-13 00:31N 53°37' E 009°34'0 0.0
2014-Apr-12 23:28N 53°37' E 009°34'0 0.0
2014-Apr-12 22:31N 53°37' E 009°34'0 0.1
2014-Apr-12 21:28N 53°37' E 009°34'8 8.6
2014-Apr-12 20:33N 53°44' E 009°27'1111.0
2014-Apr-12 19:34N 53°52' E 009°16'4 4.4
2014-Apr-12 18:33N 53°54' E 009°09'1 1.0
2014-Apr-12 17:33N 53°54' E 009°10'7 7.2
2014-Apr-12 16:33N 54°00' E 009°18'9 8.6
2014-Apr-12 15:33N 54°08' E 009°21'9 8.5
2014-Apr-12 14:33N 54°12' E 009°34'  
2014-Apr-09 22:05N 55°17' E 012°37'3 5.6
2014-Apr-09 21:33N 55°20' E 012°38'6 5.5
2014-Apr-09 20:33N 55°25' E 012°39'7 6.8
2014-Apr-09 19:33N 55°31' E 012°45'1010.2
2014-Apr-09 18:34N 55°38' E 012°58'2 1.6
2014-Apr-09 17:32N 55°38' E 013°00'0 0.0
2014-Apr-09 16:32N 55°38' E 013°00'0 0.0
2014-Apr-09 15:32N 55°38' E 013°00'0 0.0
2014-Apr-09 14:32N 55°38' E 013°00'0 0.0
2014-Apr-09 13:32N 55°38' E 013°00'0 0.0
2014-Apr-09 12:32N 55°38' E 013°00'0 0.0
2014-Apr-09 11:32N 55°38' E 013°00'0 0.0
2014-Apr-09 10:32N 55°38' E 013°00'0 0.0
2014-Apr-09 09:32N 55°38' E 013°00'0 0.0
2014-Apr-09 08:32N 55°38' E 013°00'0 0.0
2014-Apr-09 07:32N 55°38' E 013°00'0 0.0
2014-Apr-09 06:32N 55°38' E 013°00'0 0.0
2014-Apr-09 05:32N 55°38' E 013°00'0 0.0
2014-Apr-09 04:32N 55°38' E 013°00'0 0.0
2014-Apr-09 03:32N 55°38' E 013°00'0 0.0
2014-Apr-09 02:32N 55°38' E 013°00'0 0.0
2014-Apr-09 01:32N 55°38' E 013°00'0 0.0
2014-Apr-09 00:32N 55°38' E 013°00'0 0.0
2014-Apr-08 23:32N 55°38' E 013°00'0 0.0
2014-Apr-08 22:32N 55°38' E 013°00'0 0.0
2014-Apr-08 21:32N 55°38' E 013°00'0 0.0
2014-Apr-08 20:32N 55°38' E 013°00'0 0.0
2014-Apr-08 19:32N 55°38' E 013°00'0 0.0
2014-Apr-08 18:32N 55°38' E 013°00'0 0.0
2014-Apr-08 17:32N 55°38' E 013°00'0 0.0
2014-Apr-08 16:32N 55°38' E 013°00'0 0.0
2014-Apr-08 15:32N 55°38' E 013°00'0 0.0
2014-Apr-08 14:32N 55°38' E 013°00'0 0.0
2014-Apr-08 13:32N 55°38' E 013°00'0 0.0
2014-Apr-08 12:31N 55°38' E 013°00'0 0.0
2014-Apr-08 11:31N 55°38' E 013°00'0 0.0
2014-Apr-08 10:31N 55°38' E 013°00'0 0.0
2014-Apr-08 09:31N 55°38' E 013°00'0 0.0
2014-Apr-08 08:31N 55°38' E 013°00'0 0.0
2014-Apr-08 07:31N 55°38' E 013°00'0 0.0
2014-Apr-08 06:31N 55°38' E 013°00'0 0.0
2014-Apr-08 05:31N 55°38' E 013°00'0 0.0
2014-Apr-08 04:31N 55°38' E 013°00'0 0.0
2014-Apr-08 03:31N 55°38' E 013°00'0 0.0
2014-Apr-08 02:31N 55°38' E 013°00'0 0.0
2014-Apr-08 01:31N 55°38' E 013°00'0 0.0
2014-Apr-08 00:28N 55°38' E 013°00'0 0.0
2014-Apr-07 23:31N 55°38' E 013°00'0 0.0
2014-Apr-07 22:31N 55°38' E 013°00'0 0.0
2014-Apr-07 21:31N 55°38' E 013°00'0 0.0
2014-Apr-07 20:31N 55°38' E 013°00'0 0.0
2014-Apr-07 19:31N 55°38' E 013°00'  

Dump ship's entire track history

sailing weather and tide predictions

Forseti — V2PV4 — position and weather